sensor_id;sensor_type;location;lat;lon;timestamp;pressure;altitude;pressure_sealevel;temperature
33267;BMP180;19638;49.080;11.896;2023-12-29T00:02:16;96341.00;;;8.10
33267;BMP180;19638;49.080;11.896;2023-12-29T00:06:19;96345.00;;;7.90
33267;BMP180;19638;49.080;11.896;2023-12-29T00:10:22;96328.00;;;7.70
33267;BMP180;19638;49.080;11.896;2023-12-29T00:14:25;96334.00;;;7.60
33267;BMP180;19638;49.080;11.896;2023-12-29T00:18:30;96332.00;;;7.40
33267;BMP180;19638;49.080;11.896;2023-12-29T00:22:34;96325.00;;;7.30
33267;BMP180;19638;49.080;11.896;2023-12-29T00:26:37;96335.00;;;7.30
33267;BMP180;19638;49.080;11.896;2023-12-29T00:30:40;96326.00;;;7.30
33267;BMP180;19638;49.080;11.896;2023-12-29T00:35:02;96339.00;;;7.40
33267;BMP180;19638;49.080;11.896;2023-12-29T00:39:05;96323.00;;;7.40
33267;BMP180;19638;49.080;11.896;2023-12-29T00:43:09;96334.00;;;7.40
33267;BMP180;19638;49.080;11.896;2023-12-29T00:47:12;96333.00;;;7.50
33267;BMP180;19638;49.080;11.896;2023-12-29T00:51:16;96326.00;;;7.50
33267;BMP180;19638;49.080;11.896;2023-12-29T00:55:20;96342.00;;;7.50
33267;BMP180;19638;49.080;11.896;2023-12-29T00:59:23;96335.00;;;7.50
33267;BMP180;19638;49.080;11.896;2023-12-29T01:03:26;96340.00;;;7.50
33267;BMP180;19638;49.080;11.896;2023-12-29T01:07:30;96341.00;;;7.60
33267;BMP180;19638;49.080;11.896;2023-12-29T01:11:33;96348.00;;;7.70
33267;BMP180;19638;49.080;11.896;2023-12-29T01:15:37;96336.00;;;7.80
33267;BMP180;19638;49.080;11.896;2023-12-29T01:19:42;96315.00;;;7.80
33267;BMP180;19638;49.080;11.896;2023-12-29T01:23:47;96339.00;;;7.90
33267;BMP180;19638;49.080;11.896;2023-12-29T01:27:50;96343.00;;;7.90
33267;BMP180;19638;49.080;11.896;2023-12-29T01:31:53;96342.00;;;8.00
33267;BMP180;19638;49.080;11.896;2023-12-29T01:35:56;96326.00;;;8.00
33267;BMP180;19638;49.080;11.896;2023-12-29T01:40:06;96327.00;;;8.00
33267;BMP180;19638;49.080;11.896;2023-12-29T01:44:27;96320.00;;;8.00
33267;BMP180;19638;49.080;11.896;2023-12-29T01:48:30;96312.00;;;8.10
33267;BMP180;19638;49.080;11.896;2023-12-29T01:52:34;96311.00;;;8.10
33267;BMP180;19638;49.080;11.896;2023-12-29T01:56:39;96298.00;;;8.10
33267;BMP180;19638;49.080;11.896;2023-12-29T02:00:44;96301.00;;;8.10
33267;BMP180;19638;49.080;11.896;2023-12-29T02:04:47;96311.00;;;8.10
33267;BMP180;19638;49.080;11.896;2023-12-29T02:08:51;96311.00;;;8.10
33267;BMP180;19638;49.080;11.896;2023-12-29T02:12:55;96310.00;;;8.20
33267;BMP180;19638;49.080;11.896;2023-12-29T02:17:08;96306.00;;;8.20
33267;BMP180;19638;49.080;11.896;2023-12-29T02:21:13;96302.00;;;8.20
33267;BMP180;19638;49.080;11.896;2023-12-29T02:25:18;96293.00;;;8.20
33267;BMP180;19638;49.080;11.896;2023-12-29T02:29:24;96283.00;;;8.20
33267;BMP180;19638;49.080;11.896;2023-12-29T02:33:28;96275.00;;;8.10
33267;BMP180;19638;49.080;11.896;2023-12-29T02:37:34;96262.00;;;8.10
33267;BMP180;19638;49.080;11.896;2023-12-29T02:41:39;96269.00;;;8.10
33267;BMP180;19638;49.080;11.896;2023-12-29T02:45:42;96263.00;;;8.00
33267;BMP180;19638;49.080;11.896;2023-12-29T02:49:45;96269.00;;;8.10
33267;BMP180;19638;49.080;11.896;2023-12-29T02:53:49;96269.00;;;8.10
33267;BMP180;19638;49.080;11.896;2023-12-29T02:57:53;96266.00;;;8.20
33267;BMP180;19638;49.080;11.896;2023-12-29T03:01:56;96262.00;;;8.20
33267;BMP180;19638;49.080;11.896;2023-12-29T03:06:00;96266.00;;;8.20
33267;BMP180;19638;49.080;11.896;2023-12-29T03:10:04;96265.00;;;8.20
33267;BMP180;19638;49.080;11.896;2023-12-29T03:14:08;96253.00;;;8.20
33267;BMP180;19638;49.080;11.896;2023-12-29T03:18:11;96252.00;;;8.20
33267;BMP180;19638;49.080;11.896;2023-12-29T03:22:15;96244.00;;;8.20
33267;BMP180;19638;49.080;11.896;2023-12-29T03:26:18;96234.00;;;8.20
33267;BMP180;19638;49.080;11.896;2023-12-29T03:30:23;96235.00;;;8.10
33267;BMP180;19638;49.080;11.896;2023-12-29T03:34:26;96239.00;;;8.00
33267;BMP180;19638;49.080;11.896;2023-12-29T03:38:29;96243.00;;;7.90
33267;BMP180;19638;49.080;11.896;2023-12-29T03:42:35;96235.00;;;7.90
33267;BMP180;19638;49.080;11.896;2023-12-29T03:46:40;96233.00;;;7.80
33267;BMP180;19638;49.080;11.896;2023-12-29T03:50:43;96214.00;;;7.70
33267;BMP180;19638;49.080;11.896;2023-12-29T03:54:46;96213.00;;;7.60
33267;BMP180;19638;49.080;11.896;2023-12-29T03:58:49;96205.00;;;7.50
33267;BMP180;19638;49.080;11.896;2023-12-29T04:02:54;96195.00;;;7.40
33267;BMP180;19638;49.080;11.896;2023-12-29T04:06:57;96193.00;;;7.30
33267;BMP180;19638;49.080;11.896;2023-12-29T04:11:01;96183.00;;;7.20
33267;BMP180;19638;49.080;11.896;2023-12-29T04:15:05;96179.00;;;7.10
33267;BMP180;19638;49.080;11.896;2023-12-29T04:19:10;96193.00;;;7.00
33267;BMP180;19638;49.080;11.896;2023-12-29T04:23:17;96180.00;;;6.90
33267;BMP180;19638;49.080;11.896;2023-12-29T04:27:21;96167.00;;;6.90
33267;BMP180;19638;49.080;11.896;2023-12-29T04:31:25;96158.00;;;6.90
33267;BMP180;19638;49.080;11.896;2023-12-29T04:35:29;96156.00;;;6.90
33267;BMP180;19638;49.080;11.896;2023-12-29T04:39:32;96173.00;;;6.90
33267;BMP180;19638;49.080;11.896;2023-12-29T04:43:35;96169.00;;;6.80
33267;BMP180;19638;49.080;11.896;2023-12-29T04:47:38;96178.00;;;6.80
33267;BMP180;19638;49.080;11.896;2023-12-29T04:51:43;96171.00;;;6.70
33267;BMP180;19638;49.080;11.896;2023-12-29T04:55:46;96174.00;;;6.70
33267;BMP180;19638;49.080;11.896;2023-12-29T04:59:49;96183.00;;;6.60
33267;BMP180;19638;49.080;11.896;2023-12-29T05:03:52;96186.00;;;6.60
33267;BMP180;19638;49.080;11.896;2023-12-29T05:07:58;96182.00;;;6.50
33267;BMP180;19638;49.080;11.896;2023-12-29T05:12:02;96189.00;;;6.50
33267;BMP180;19638;49.080;11.896;2023-12-29T05:16:05;96177.00;;;6.40
33267;BMP180;19638;49.080;11.896;2023-12-29T05:20:10;96190.00;;;6.30
33267;BMP180;19638;49.080;11.896;2023-12-29T05:24:14;96195.00;;;6.30
33267;BMP180;19638;49.080;11.896;2023-12-29T05:28:17;96189.00;;;6.20
33267;BMP180;19638;49.080;11.896;2023-12-29T05:32:21;96192.00;;;6.10
33267;BMP180;19638;49.080;11.896;2023-12-29T05:36:24;96194.00;;;6.00
33267;BMP180;19638;49.080;11.896;2023-12-29T05:40:28;96201.00;;;6.00
33267;BMP180;19638;49.080;11.896;2023-12-29T05:44:32;96192.00;;;5.90
33267;BMP180;19638;49.080;11.896;2023-12-29T05:48:35;96201.00;;;5.90
33267;BMP180;19638;49.080;11.896;2023-12-29T05:52:38;96204.00;;;5.90
33267;BMP180;19638;49.080;11.896;2023-12-29T05:56:43;96195.00;;;5.90
33267;BMP180;19638;49.080;11.896;2023-12-29T06:00:46;96210.00;;;6.00
33267;BMP180;19638;49.080;11.896;2023-12-29T06:04:50;96202.00;;;6.00
33267;BMP180;19638;49.080;11.896;2023-12-29T06:08:53;96193.00;;;6.20
33267;BMP180;19638;49.080;11.896;2023-12-29T06:12:59;96196.00;;;6.30
33267;BMP180;19638;49.080;11.896;2023-12-29T06:17:04;96195.00;;;6.30
33267;BMP180;19638;49.080;11.896;2023-12-29T06:21:08;96206.00;;;6.40
33267;BMP180;19638;49.080;11.896;2023-12-29T06:25:11;96217.00;;;6.50
33267;BMP180;19638;49.080;11.896;2023-12-29T06:29:16;96212.00;;;6.50
33267;BMP180;19638;49.080;11.896;2023-12-29T06:33:19;96215.00;;;6.60
33267;BMP180;19638;49.080;11.896;2023-12-29T06:37:24;96207.00;;;6.60
33267;BMP180;19638;49.080;11.896;2023-12-29T06:41:27;96211.00;;;6.80
33267;BMP180;19638;49.080;11.896;2023-12-29T06:45:31;96212.00;;;6.90
33267;BMP180;19638;49.080;11.896;2023-12-29T06:49:35;96210.00;;;7.10
33267;BMP180;19638;49.080;11.896;2023-12-29T06:53:38;96210.00;;;7.10
33267;BMP180;19638;49.080;11.896;2023-12-29T06:57:41;96218.00;;;7.10
33267;BMP180;19638;49.080;11.896;2023-12-29T07:01:46;96223.00;;;7.10
33267;BMP180;19638;49.080;11.896;2023-12-29T07:05:50;96223.00;;;7.30
33267;BMP180;19638;49.080;11.896;2023-12-29T07:09:53;96216.00;;;7.40
33267;BMP180;19638;49.080;11.896;2023-12-29T07:13:57;96211.00;;;7.50
33267;BMP180;19638;49.080;11.896;2023-12-29T07:18:01;96219.00;;;7.60
33267;BMP180;19638;49.080;11.896;2023-12-29T07:22:06;96219.00;;;7.80
33267;BMP180;19638;49.080;11.896;2023-12-29T07:26:10;96219.00;;;7.90
33267;BMP180;19638;49.080;11.896;2023-12-29T07:30:14;96220.00;;;8.00
33267;BMP180;19638;49.080;11.896;2023-12-29T07:34:18;96217.00;;;8.10
33267;BMP180;19638;49.080;11.896;2023-12-29T07:38:23;96216.00;;;8.10
33267;BMP180;19638;49.080;11.896;2023-12-29T07:42:26;96217.00;;;8.10
33267;BMP180;19638;49.080;11.896;2023-12-29T07:46:29;96207.00;;;8.10
33267;BMP180;19638;49.080;11.896;2023-12-29T07:50:34;96206.00;;;8.00
33267;BMP180;19638;49.080;11.896;2023-12-29T07:54:38;96208.00;;;8.00
33267;BMP180;19638;49.080;11.896;2023-12-29T07:58:41;96227.00;;;8.10
33267;BMP180;19638;49.080;11.896;2023-12-29T08:02:47;96220.00;;;8.20
33267;BMP180;19638;49.080;11.896;2023-12-29T08:06:52;96214.00;;;8.30
33267;BMP180;19638;49.080;11.896;2023-12-29T08:10:55;96212.00;;;8.30
33267;BMP180;19638;49.080;11.896;2023-12-29T08:14:58;96217.00;;;8.30
33267;BMP180;19638;49.080;11.896;2023-12-29T08:19:01;96228.00;;;8.40
33267;BMP180;19638;49.080;11.896;2023-12-29T08:23:06;96219.00;;;8.60
33267;BMP180;19638;49.080;11.896;2023-12-29T08:27:12;96205.00;;;8.80
33267;BMP180;19638;49.080;11.896;2023-12-29T08:31:15;96215.00;;;8.80
33267;BMP180;19638;49.080;11.896;2023-12-29T08:35:19;96218.00;;;8.80
33267;BMP180;19638;49.080;11.896;2023-12-29T08:39:23;96222.00;;;8.90
33267;BMP180;19638;49.080;11.896;2023-12-29T08:43:27;96235.00;;;9.00
33267;BMP180;19638;49.080;11.896;2023-12-29T08:47:30;96244.00;;;9.00
33267;BMP180;19638;49.080;11.896;2023-12-29T08:51:33;96250.00;;;9.20
33267;BMP180;19638;49.080;11.896;2023-12-29T08:55:38;96260.00;;;9.40
33267;BMP180;19638;49.080;11.896;2023-12-29T08:59:41;96263.00;;;9.70
33267;BMP180;19638;49.080;11.896;2023-12-29T09:03:45;96273.00;;;10.00
33267;BMP180;19638;49.080;11.896;2023-12-29T09:07:48;96273.00;;;10.20
33267;BMP180;19638;49.080;11.896;2023-12-29T09:11:53;96281.00;;;10.20
33267;BMP180;19638;49.080;11.896;2023-12-29T09:15:56;96276.00;;;10.40
33267;BMP180;19638;49.080;11.896;2023-12-29T09:19:59;96275.00;;;10.50
33267;BMP180;19638;49.080;11.896;2023-12-29T09:24:11;96281.00;;;10.50
33267;BMP180;19638;49.080;11.896;2023-12-29T09:28:15;96283.00;;;10.70
33267;BMP180;19638;49.080;11.896;2023-12-29T09:32:18;96270.00;;;10.70
33267;BMP180;19638;49.080;11.896;2023-12-29T09:36:22;96268.00;;;10.60
33267;BMP180;19638;49.080;11.896;2023-12-29T09:40:25;96280.00;;;10.60
33267;BMP180;19638;49.080;11.896;2023-12-29T09:44:31;96276.00;;;10.60
33267;BMP180;19638;49.080;11.896;2023-12-29T09:48:36;96278.00;;;10.70
33267;BMP180;19638;49.080;11.896;2023-12-29T09:52:40;96274.00;;;10.90
33267;BMP180;19638;49.080;11.896;2023-12-29T09:56:43;96266.00;;;11.00
33267;BMP180;19638;49.080;11.896;2023-12-29T10:00:48;96282.00;;;11.00
33267;BMP180;19638;49.080;11.896;2023-12-29T10:04:52;96273.00;;;11.20
33267;BMP180;19638;49.080;11.896;2023-12-29T10:08:56;96275.00;;;11.30
33267;BMP180;19638;49.080;11.896;2023-12-29T10:13:01;96276.00;;;11.40
33267;BMP180;19638;49.080;11.896;2023-12-29T10:17:15;96279.00;;;11.50
33267;BMP180;19638;49.080;11.896;2023-12-29T10:21:27;96268.00;;;11.40
33267;BMP180;19638;49.080;11.896;2023-12-29T10:25:31;96253.00;;;11.40
33267;BMP180;19638;49.080;11.896;2023-12-29T10:29:34;96259.00;;;11.40
33267;BMP180;19638;49.080;11.896;2023-12-29T10:33:40;96256.00;;;11.50
33267;BMP180;19638;49.080;11.896;2023-12-29T10:37:44;96242.00;;;11.50
33267;BMP180;19638;49.080;11.896;2023-12-29T10:41:47;96244.00;;;11.50
33267;BMP180;19638;49.080;11.896;2023-12-29T10:46:05;96244.00;;;11.40
33267;BMP180;19638;49.080;11.896;2023-12-29T10:50:11;96222.00;;;11.40
33267;BMP180;19638;49.080;11.896;2023-12-29T10:54:19;96214.00;;;11.30
33267;BMP180;19638;49.080;11.896;2023-12-29T10:58:25;96213.00;;;11.30
33267;BMP180;19638;49.080;11.896;2023-12-29T11:02:32;96213.00;;;11.30
33267;BMP180;19638;49.080;11.896;2023-12-29T11:06:41;96215.00;;;11.40
33267;BMP180;19638;49.080;11.896;2023-12-29T11:10:48;96202.00;;;11.50
33267;BMP180;19638;49.080;11.896;2023-12-29T11:14:52;96204.00;;;11.40
33267;BMP180;19638;49.080;11.896;2023-12-29T11:18:56;96204.00;;;11.40
33267;BMP180;19638;49.080;11.896;2023-12-29T11:23:02;96181.00;;;11.30
33267;BMP180;19638;49.080;11.896;2023-12-29T11:27:06;96177.00;;;11.40
33267;BMP180;19638;49.080;11.896;2023-12-29T11:31:10;96170.00;;;11.40
33267;BMP180;19638;49.080;11.896;2023-12-29T11:35:17;96174.00;;;11.50
33267;BMP180;19638;49.080;11.896;2023-12-29T11:39:27;96166.00;;;11.50
33267;BMP180;19638;49.080;11.896;2023-12-29T11:43:33;96169.00;;;11.50
33267;BMP180;19638;49.080;11.896;2023-12-29T11:47:37;96164.00;;;11.50
33267;BMP180;19638;49.080;11.896;2023-12-29T11:51:42;96151.00;;;11.50
33267;BMP180;19638;49.080;11.896;2023-12-29T11:55:47;96153.00;;;11.50
33267;BMP180;19638;49.080;11.896;2023-12-29T11:59:50;96156.00;;;11.60
33267;BMP180;19638;49.080;11.896;2023-12-29T12:03:53;96144.00;;;11.60
33267;BMP180;19638;49.080;11.896;2023-12-29T12:07:58;96146.00;;;11.60
33267;BMP180;19638;49.080;11.896;2023-12-29T12:12:05;96149.00;;;11.60
33267;BMP180;19638;49.080;11.896;2023-12-29T12:16:08;96146.00;;;11.60
33267;BMP180;19638;49.080;11.896;2023-12-29T12:20:12;96132.00;;;11.60
33267;BMP180;19638;49.080;11.896;2023-12-29T12:24:18;96129.00;;;11.60
33267;BMP180;19638;49.080;11.896;2023-12-29T12:28:23;96127.00;;;11.70
33267;BMP180;19638;49.080;11.896;2023-12-29T12:32:28;96129.00;;;11.70
33267;BMP180;19638;49.080;11.896;2023-12-29T12:36:32;96126.00;;;11.70
33267;BMP180;19638;49.080;11.896;2023-12-29T12:40:35;96128.00;;;11.80
33267;BMP180;19638;49.080;11.896;2023-12-29T12:44:41;96131.00;;;11.80
33267;BMP180;19638;49.080;11.896;2023-12-29T12:48:46;96125.00;;;11.80
33267;BMP180;19638;49.080;11.896;2023-12-29T12:52:49;96132.00;;;11.80
33267;BMP180;19638;49.080;11.896;2023-12-29T12:56:54;96126.00;;;11.80
33267;BMP180;19638;49.080;11.896;2023-12-29T13:01:00;96122.00;;;11.80
33267;BMP180;19638;49.080;11.896;2023-12-29T13:05:04;96129.00;;;11.80
33267;BMP180;19638;49.080;11.896;2023-12-29T13:09:10;96126.00;;;11.80
33267;BMP180;19638;49.080;11.896;2023-12-29T13:13:14;96132.00;;;11.80
33267;BMP180;19638;49.080;11.896;2023-12-29T13:17:19;96128.00;;;11.70
33267;BMP180;19638;49.080;11.896;2023-12-29T13:21:24;96128.00;;;11.60
33267;BMP180;19638;49.080;11.896;2023-12-29T13:25:28;96134.00;;;11.60
33267;BMP180;19638;49.080;11.896;2023-12-29T13:29:31;96129.00;;;11.60
33267;BMP180;19638;49.080;11.896;2023-12-29T13:33:49;96134.00;;;11.50
33267;BMP180;19638;49.080;11.896;2023-12-29T13:38:02;96132.00;;;11.40
33267;BMP180;19638;49.080;11.896;2023-12-29T13:42:09;96122.00;;;11.40
33267;BMP180;19638;49.080;11.896;2023-12-29T13:46:15;96119.00;;;11.30
33267;BMP180;19638;49.080;11.896;2023-12-29T13:50:21;96119.00;;;11.20
33267;BMP180;19638;49.080;11.896;2023-12-29T13:54:27;96127.00;;;11.20
33267;BMP180;19638;49.080;11.896;2023-12-29T13:58:30;96125.00;;;11.10
33267;BMP180;19638;49.080;11.896;2023-12-29T14:02:35;96139.00;;;11.10
33267;BMP180;19638;49.080;11.896;2023-12-29T14:06:43;96132.00;;;11.10
33267;BMP180;19638;49.080;11.896;2023-12-29T14:10:53;96136.00;;;11.10
33267;BMP180;19638;49.080;11.896;2023-12-29T14:15:02;96132.00;;;11.00
33267;BMP180;19638;49.080;11.896;2023-12-29T14:19:06;96133.00;;;11.00
33267;BMP180;19638;49.080;11.896;2023-12-29T14:23:11;96135.00;;;10.90
33267;BMP180;19638;49.080;11.896;2023-12-29T14:27:16;96130.00;;;10.90
33267;BMP180;19638;49.080;11.896;2023-12-29T14:31:19;96140.00;;;10.90
33267;BMP180;19638;49.080;11.896;2023-12-29T14:35:22;96143.00;;;11.00
33267;BMP180;19638;49.080;11.896;2023-12-29T14:39:27;96146.00;;;11.00
33267;BMP180;19638;49.080;11.896;2023-12-29T14:43:30;96144.00;;;11.00
33267;BMP180;19638;49.080;11.896;2023-12-29T14:47:33;96149.00;;;10.90
33267;BMP180;19638;49.080;11.896;2023-12-29T14:51:37;96141.00;;;10.90
33267;BMP180;19638;49.080;11.896;2023-12-29T14:55:42;96137.00;;;10.90
33267;BMP180;19638;49.080;11.896;2023-12-29T14:59:48;96139.00;;;10.90
33267;BMP180;19638;49.080;11.896;2023-12-29T15:03:51;96144.00;;;10.90
33267;BMP180;19638;49.080;11.896;2023-12-29T15:07:55;96141.00;;;10.90
33267;BMP180;19638;49.080;11.896;2023-12-29T15:12:00;96138.00;;;10.80
33267;BMP180;19638;49.080;11.896;2023-12-29T15:16:04;96138.00;;;10.80
33267;BMP180;19638;49.080;11.896;2023-12-29T15:20:10;96129.00;;;10.70
33267;BMP180;19638;49.080;11.896;2023-12-29T15:24:13;96134.00;;;10.70
33267;BMP180;19638;49.080;11.896;2023-12-29T15:28:18;96132.00;;;10.60
33267;BMP180;19638;49.080;11.896;2023-12-29T15:32:21;96128.00;;;10.60
33267;BMP180;19638;49.080;11.896;2023-12-29T15:36:24;96122.00;;;10.60
33267;BMP180;19638;49.080;11.896;2023-12-29T15:40:27;96125.00;;;10.60
33267;BMP180;19638;49.080;11.896;2023-12-29T15:44:32;96123.00;;;10.60
33267;BMP180;19638;49.080;11.896;2023-12-29T15:48:35;96127.00;;;10.50
33267;BMP180;19638;49.080;11.896;2023-12-29T15:52:38;96129.00;;;10.50
33267;BMP180;19638;49.080;11.896;2023-12-29T15:56:41;96123.00;;;10.50
33267;BMP180;19638;49.080;11.896;2023-12-29T16:06:18;96129.00;;;10.50
33267;BMP180;19638;49.080;11.896;2023-12-29T16:10:21;96132.00;;;10.60
33267;BMP180;19638;49.080;11.896;2023-12-29T16:14:26;96130.00;;;10.60
33267;BMP180;19638;49.080;11.896;2023-12-29T16:18:29;96123.00;;;10.60
33267;BMP180;19638;49.080;11.896;2023-12-29T16:22:34;96130.00;;;10.60
33267;BMP180;19638;49.080;11.896;2023-12-29T16:26:37;96121.00;;;10.50
33267;BMP180;19638;49.080;11.896;2023-12-29T16:30:48;96123.00;;;10.40
33267;BMP180;19638;49.080;11.896;2023-12-29T16:34:52;96098.00;;;10.30
33267;BMP180;19638;49.080;11.896;2023-12-29T16:38:57;96113.00;;;10.20
33267;BMP180;19638;49.080;11.896;2023-12-29T16:43:00;96111.00;;;10.00
33267;BMP180;19638;49.080;11.896;2023-12-29T16:47:04;96109.00;;;9.90
33267;BMP180;19638;49.080;11.896;2023-12-29T16:51:08;96102.00;;;9.80
33267;BMP180;19638;49.080;11.896;2023-12-29T16:55:14;96092.00;;;9.70
33267;BMP180;19638;49.080;11.896;2023-12-29T16:59:18;96097.00;;;9.60
33267;BMP180;19638;49.080;11.896;2023-12-29T17:03:21;96083.00;;;9.50
33267;BMP180;19638;49.080;11.896;2023-12-29T17:07:25;96083.00;;;9.40
33267;BMP180;19638;49.080;11.896;2023-12-29T17:11:29;96085.00;;;9.30
33267;BMP180;19638;49.080;11.896;2023-12-29T17:15:32;96090.00;;;9.30
33267;BMP180;19638;49.080;11.896;2023-12-29T17:19:36;96085.00;;;9.20
33267;BMP180;19638;49.080;11.896;2023-12-29T17:23:39;96080.00;;;9.10
33267;BMP180;19638;49.080;11.896;2023-12-29T17:27:44;96081.00;;;9.00
33267;BMP180;19638;49.080;11.896;2023-12-29T17:31:47;96078.00;;;9.00
33267;BMP180;19638;49.080;11.896;2023-12-29T17:35:51;96077.00;;;8.90
33267;BMP180;19638;49.080;11.896;2023-12-29T17:39:55;96080.00;;;8.90
33267;BMP180;19638;49.080;11.896;2023-12-29T17:44:00;96082.00;;;8.80
33267;BMP180;19638;49.080;11.896;2023-12-29T17:48:04;96086.00;;;8.80
33267;BMP180;19638;49.080;11.896;2023-12-29T17:52:08;96092.00;;;8.80
33267;BMP180;19638;49.080;11.896;2023-12-29T17:56:11;96094.00;;;8.80
33267;BMP180;19638;49.080;11.896;2023-12-29T18:00:16;96089.00;;;8.70
33267;BMP180;19638;49.080;11.896;2023-12-29T18:04:19;96091.00;;;8.70
33267;BMP180;19638;49.080;11.896;2023-12-29T18:08:22;96090.00;;;8.60
33267;BMP180;19638;49.080;11.896;2023-12-29T18:12:25;96088.00;;;8.50
33267;BMP180;19638;49.080;11.896;2023-12-29T18:16:31;96087.00;;;8.50
33267;BMP180;19638;49.080;11.896;2023-12-29T18:20:35;96084.00;;;8.60
33267;BMP180;19638;49.080;11.896;2023-12-29T18:24:38;96091.00;;;8.60
33267;BMP180;19638;49.080;11.896;2023-12-29T18:28:43;96094.00;;;8.50
33267;BMP180;19638;49.080;11.896;2023-12-29T18:32:49;96084.00;;;8.50
33267;BMP180;19638;49.080;11.896;2023-12-29T18:36:52;96093.00;;;8.50
33267;BMP180;19638;49.080;11.896;2023-12-29T18:40:55;96094.00;;;8.40
33267;BMP180;19638;49.080;11.896;2023-12-29T18:44:58;96085.00;;;8.30
33267;BMP180;19638;49.080;11.896;2023-12-29T18:49:03;96093.00;;;8.30
33267;BMP180;19638;49.080;11.896;2023-12-29T18:53:08;96092.00;;;8.30
33267;BMP180;19638;49.080;11.896;2023-12-29T18:57:11;96096.00;;;8.40
33267;BMP180;19638;49.080;11.896;2023-12-29T19:01:17;96099.00;;;8.50
33267;BMP180;19638;49.080;11.896;2023-12-29T19:05:23;96093.00;;;8.60
33267;BMP180;19638;49.080;11.896;2023-12-29T19:09:26;96089.00;;;8.70
33267;BMP180;19638;49.080;11.896;2023-12-29T19:13:30;96091.00;;;8.70
33267;BMP180;19638;49.080;11.896;2023-12-29T19:17:33;96085.00;;;8.70
33267;BMP180;19638;49.080;11.896;2023-12-29T19:21:39;96084.00;;;8.60
33267;BMP180;19638;49.080;11.896;2023-12-29T19:25:44;96080.00;;;8.60
33267;BMP180;19638;49.080;11.896;2023-12-29T19:29:48;96074.00;;;8.60
33267;BMP180;19638;49.080;11.896;2023-12-29T19:33:51;96079.00;;;8.50
33267;BMP180;19638;49.080;11.896;2023-12-29T19:37:57;96077.00;;;8.40
33267;BMP180;19638;49.080;11.896;2023-12-29T19:42:00;96084.00;;;8.40
33267;BMP180;19638;49.080;11.896;2023-12-29T19:46:05;96079.00;;;8.40
33267;BMP180;19638;49.080;11.896;2023-12-29T19:50:09;96074.00;;;8.30
33267;BMP180;19638;49.080;11.896;2023-12-29T19:54:13;96083.00;;;8.20
33267;BMP180;19638;49.080;11.896;2023-12-29T19:58:16;96085.00;;;8.10
33267;BMP180;19638;49.080;11.896;2023-12-29T20:02:19;96082.00;;;7.90
33267;BMP180;19638;49.080;11.896;2023-12-29T20:06:25;96081.00;;;7.80
33267;BMP180;19638;49.080;11.896;2023-12-29T20:10:30;96079.00;;;7.70
33267;BMP180;19638;49.080;11.896;2023-12-29T20:14:33;96085.00;;;7.60
33267;BMP180;19638;49.080;11.896;2023-12-29T20:18:36;96073.00;;;7.50
33267;BMP180;19638;49.080;11.896;2023-12-29T20:22:39;96077.00;;;7.50
33267;BMP180;19638;49.080;11.896;2023-12-29T20:26:44;96081.00;;;7.40
33267;BMP180;19638;49.080;11.896;2023-12-29T20:30:47;96069.00;;;7.40
33267;BMP180;19638;49.080;11.896;2023-12-29T20:34:50;96068.00;;;7.30
33267;BMP180;19638;49.080;11.896;2023-12-29T20:38:54;96069.00;;;7.20
33267;BMP180;19638;49.080;11.896;2023-12-29T20:42:59;96081.00;;;7.20
33267;BMP180;19638;49.080;11.896;2023-12-29T20:47:03;96073.00;;;7.10
33267;BMP180;19638;49.080;11.896;2023-12-29T20:51:07;96083.00;;;7.00
33267;BMP180;19638;49.080;11.896;2023-12-29T20:55:17;96090.00;;;6.90
33267;BMP180;19638;49.080;11.896;2023-12-29T20:59:23;96086.00;;;6.70
33267;BMP180;19638;49.080;11.896;2023-12-29T21:03:27;96096.00;;;6.60
33267;BMP180;19638;49.080;11.896;2023-12-29T21:07:31;96097.00;;;6.40
33267;BMP180;19638;49.080;11.896;2023-12-29T21:11:34;96100.00;;;6.30
33267;BMP180;19638;49.080;11.896;2023-12-29T21:15:38;96095.00;;;6.30
33267;BMP180;19638;49.080;11.896;2023-12-29T21:19:42;96090.00;;;6.30
33267;BMP180;19638;49.080;11.896;2023-12-29T21:23:46;96092.00;;;6.30
33267;BMP180;19638;49.080;11.896;2023-12-29T21:27:49;96088.00;;;6.30
33267;BMP180;19638;49.080;11.896;2023-12-29T21:31:54;96084.00;;;6.30
33267;BMP180;19638;49.080;11.896;2023-12-29T21:35:57;96084.00;;;6.30
33267;BMP180;19638;49.080;11.896;2023-12-29T21:40:00;96092.00;;;6.20
33267;BMP180;19638;49.080;11.896;2023-12-29T21:44:04;96091.00;;;6.20
33267;BMP180;19638;49.080;11.896;2023-12-29T21:48:15;96096.00;;;6.20
33267;BMP180;19638;49.080;11.896;2023-12-29T21:52:19;96090.00;;;6.20
33267;BMP180;19638;49.080;11.896;2023-12-29T21:56:22;96078.00;;;6.10
33267;BMP180;19638;49.080;11.896;2023-12-29T22:00:25;96082.00;;;6.10
33267;BMP180;19638;49.080;11.896;2023-12-29T22:04:30;96080.00;;;6.00
33267;BMP180;19638;49.080;11.896;2023-12-29T22:08:33;96092.00;;;6.00
33267;BMP180;19638;49.080;11.896;2023-12-29T22:12:36;96095.00;;;5.90
33267;BMP180;19638;49.080;11.896;2023-12-29T22:16:39;96103.00;;;5.80
33267;BMP180;19638;49.080;11.896;2023-12-29T22:20:44;96100.00;;;5.80
33267;BMP180;19638;49.080;11.896;2023-12-29T22:24:47;96105.00;;;5.80
33267;BMP180;19638;49.080;11.896;2023-12-29T22:28:51;96095.00;;;5.80
33267;BMP180;19638;49.080;11.896;2023-12-29T22:32:54;96088.00;;;5.60
33267;BMP180;19638;49.080;11.896;2023-12-29T22:36:59;96092.00;;;5.50
33267;BMP180;19638;49.080;11.896;2023-12-29T22:41:05;96088.00;;;5.30
33267;BMP180;19638;49.080;11.896;2023-12-29T22:45:11;96089.00;;;5.20
33267;BMP180;19638;49.080;11.896;2023-12-29T22:49:14;96087.00;;;4.90
33267;BMP180;19638;49.080;11.896;2023-12-29T22:53:18;96092.00;;;4.90
33267;BMP180;19638;49.080;11.896;2023-12-29T22:57:21;96078.00;;;4.80
33267;BMP180;19638;49.080;11.896;2023-12-29T23:01:25;96086.00;;;4.70
33267;BMP180;19638;49.080;11.896;2023-12-29T23:05:29;96089.00;;;4.60
33267;BMP180;19638;49.080;11.896;2023-12-29T23:09:34;96086.00;;;4.60
33267;BMP180;19638;49.080;11.896;2023-12-29T23:13:40;96078.00;;;4.70
33267;BMP180;19638;49.080;11.896;2023-12-29T23:17:43;96078.00;;;4.80
33267;BMP180;19638;49.080;11.896;2023-12-29T23:21:46;96071.00;;;4.80
33267;BMP180;19638;49.080;11.896;2023-12-29T23:25:51;96067.00;;;4.90